Time;durP1;ratioP1;P1;durP2;ratioP2;P2;SDS_P1;SDS_P2;PMS_P1;PMS_P2;Temp;Humidity;BMP_temperature;BMP_pressure;BME280_temperature;BME280_humidity;BME280_pressure;Samples;Min_cycle;Max_cycle;Signal;HPM_P1;HPM_P2
2023/11/09 00:00:37;;;;;;;1.25;0.60;;;;;;;;;;5053931;28;20477;-86
2023/11/09 00:03:02;;;;;;;1.92;0.57;;;;;;;;;;5054423;28;20089;-86
2023/11/09 00:05:27;;;;;;;1.67;0.57;;;;;;;;;;5055823;28;20115;-86
2023/11/09 00:07:53;;;;;;;0.63;0.50;;;;;;;;;;5063667;28;20025;-86
2023/11/09 00:10:18;;;;;;;1.65;0.50;;;;;;;;;;5059351;28;20017;-85
2023/11/09 00:12:44;;;;;;;0.75;0.40;;;;;;;;;;5067375;28;20051;-86
2023/11/09 00:15:12;;;;;;;0.98;0.60;;;;;;;;;;5065768;28;20043;-86
2023/11/09 00:17:37;;;;;;;3.53;0.50;;;;;;;;;;5068199;28;20048;-86
2023/11/09 00:20:07;;;;;;;1.88;0.68;;;;;;;;;;5052593;28;20056;-86
2023/11/09 00:22:33;;;;;;;0.85;0.50;;;;;;;;;;5053631;28;20029;-86
2023/11/09 00:24:58;;;;;;;0.88;0.50;;;;;;;;;;5053696;28;20021;-85
2023/11/09 00:27:23;;;;;;;0.68;0.50;;;;;;;;;;5054321;28;20063;-85
2023/11/09 00:29:48;;;;;;;2.80;0.50;;;;;;;;;;5066828;28;20029;-86
2023/11/09 00:32:17;;;;;;;1.15;0.70;;;;;;;;;;5053683;28;20519;-85
2023/11/09 00:34:43;;;;;;;0.50;0.40;;;;;;;;;;5057906;28;20586;-86
2023/11/09 00:37:08;;;;;;;1.02;0.50;;;;;;;;;;5062479;28;20116;-86
2023/11/09 00:39:34;;;;;;;1.27;0.50;;;;;;;;;;5053347;28;20067;-85
2023/11/09 00:41:59;;;;;;;0.70;0.43;;;;;;;;;;5053268;28;20404;-85
2023/11/09 00:44:24;;;;;;;0.80;0.55;;;;;;;;;;5052690;28;20845;-85
2023/11/09 00:46:49;;;;;;;1.02;0.60;;;;;;;;;;5059928;28;20025;-85
2023/11/09 00:49:16;;;;;;;1.35;0.50;;;;;;;;;;5068895;28;20032;-85
2023/11/09 00:51:41;;;;;;;1.73;0.60;;;;;;;;;;5072105;28;20094;-85
2023/11/09 00:54:06;;;;;;;0.40;0.40;;;;;;;;;;5054874;28;20025;-85
2023/11/09 00:56:31;;;;;;;2.95;0.70;;;;;;;;;;5058548;28;20028;-85
2023/11/09 00:58:57;;;;;;;4.25;0.52;;;;;;;;;;5053968;28;20051;-85
2023/11/09 01:01:22;;;;;;;1.35;0.57;;;;;;;;;;5064610;28;20016;-85
2023/11/09 01:03:47;;;;;;;1.85;0.70;;;;;;;;;;5055626;28;20461;-86
2023/11/09 01:06:18;;;;;;;1.33;0.60;;;;;;;;;;5053080;28;20433;-86
2023/11/09 01:08:43;;;;;;;1.00;0.70;;;;;;;;;;5068922;28;20016;-86
2023/11/09 01:11:09;;;;;;;1.20;0.60;;;;;;;;;;5053687;28;20025;-86
2023/11/09 01:13:34;;;;;;;1.33;0.50;;;;;;;;;;5052590;28;20021;-86
2023/11/09 01:16:01;;;;;;;3.22;0.63;;;;;;;;;;5057710;28;20037;-86
2023/11/09 01:18:27;;;;;;;3.33;0.82;;;;;;;;;;5061111;28;20377;-86
2023/11/09 01:20:52;;;;;;;1.75;0.73;;;;;;;;;;5062042;28;20107;-87
2023/11/09 01:23:18;;;;;;;2.95;0.90;;;;;;;;;;5049760;28;20018;-86
2023/11/09 01:25:46;;;;;;;1.63;0.68;;;;;;;;;;5038256;28;20035;-86
2023/11/09 01:28:11;;;;;;;1.23;0.70;;;;;;;;;;5063970;28;20020;-86
2023/11/09 01:30:37;;;;;;;1.60;0.68;;;;;;;;;;5055218;28;20511;-85
2023/11/09 01:33:04;;;;;;;2.28;0.95;;;;;;;;;;5061443;28;20086;-86
2023/11/09 01:35:30;;;;;;;2.78;0.68;;;;;;;;;;5057908;28;20419;-86
2023/11/09 01:37:55;;;;;;;2.05;1.00;;;;;;;;;;5059975;28;20028;-87
2023/11/09 01:40:23;;;;;;;3.13;1.00;;;;;;;;;;5059223;28;20362;-85
2023/11/09 01:42:49;;;;;;;1.98;0.70;;;;;;;;;;5068156;28;20078;-86
2023/11/09 01:45:14;;;;;;;2.13;0.73;;;;;;;;;;5060142;28;20029;-86
2023/11/09 01:47:39;;;;;;;0.63;0.45;;;;;;;;;;5051888;28;20032;-84
2023/11/09 01:50:05;;;;;;;2.40;0.82;;;;;;;;;;5067433;28;20024;-87
2023/11/09 01:52:31;;;;;;;3.33;0.85;;;;;;;;;;5064237;28;20017;-86
2023/11/09 01:54:57;;;;;;;2.72;0.65;;;;;;;;;;5053032;28;20036;-86
2023/11/09 01:57:23;;;;;;;2.88;0.95;;;;;;;;;;5052896;28;20021;-86
2023/11/09 01:59:50;;;;;;;2.60;0.80;;;;;;;;;;5052150;28;20020;-86
2023/11/09 02:02:20;;;;;;;1.65;0.77;;;;;;;;;;5065891;28;20346;-85
2023/11/09 02:04:45;;;;;;;2.38;0.80;;;;;;;;;;5052589;28;20069;-86
2023/11/09 02:07:11;;;;;;;2.30;1.00;;;;;;;;;;5065631;28;20091;-86
2023/11/09 02:09:36;;;;;;;1.88;0.98;;;;;;;;;;5051771;28;20025;-86
2023/11/09 02:12:02;;;;;;;1.90;1.00;;;;;;;;;;5051986;28;20021;-86
2023/11/09 02:14:27;;;;;;;5.07;1.13;;;;;;;;;;5057671;28;20024;-86
2023/11/09 02:16:52;;;;;;;4.00;1.50;;;;;;;;;;5057481;28;20021;-85
2023/11/09 02:19:19;;;;;;;4.28;1.00;;;;;;;;;;5053456;28;20025;-86
2023/11/09 02:21:48;;;;;;;4.07;1.15;;;;;;;;;;5061631;28;20395;-86
2023/11/09 02:24:14;;;;;;;2.65;1.13;;;;;;;;;;5068326;28;20035;-85
2023/11/09 02:26:39;;;;;;;3.22;1.00;;;;;;;;;;5052629;28;20399;-85
2023/11/09 02:29:05;;;;;;;2.13;0.88;;;;;;;;;;5065267;28;20029;-86
2023/11/09 02:31:31;;;;;;;2.72;1.27;;;;;;;;;;5051506;28;20048;-86
2023/11/09 02:33:56;;;;;;;5.25;1.17;;;;;;;;;;5052565;28;20021;-86
2023/11/09 02:36:22;;;;;;;3.17;1.02;;;;;;;;;;5051754;28;20025;-86
2023/11/09 02:38:47;;;;;;;2.20;1.20;;;;;;;;;;5051604;28;20106;-86
2023/11/09 02:41:12;;;;;;;2.97;1.67;;;;;;;;;;5050561;28;20021;-86
2023/11/09 02:43:40;;;;;;;1.90;1.15;;;;;;;;;;5052713;28;20020;-86
2023/11/09 02:46:06;;;;;;;3.20;1.15;;;;;;;;;;5052689;28;20029;-85
2023/11/09 02:48:33;;;;;;;2.15;1.23;;;;;;;;;;5053776;28;20482;-86
2023/11/09 02:50:59;;;;;;;1.73;1.10;;;;;;;;;;5062373;28;20017;-86
2023/11/09 02:53:24;;;;;;;4.18;1.50;;;;;;;;;;5052190;28;20021;-85
2023/11/09 02:55:49;;;;;;;3.08;1.30;;;;;;;;;;5064420;28;20054;-86
2023/11/09 02:58:15;;;;;;;6.07;1.65;;;;;;;;;;5051765;28;20107;-86
2023/11/09 03:00:40;;;;;;;3.10;1.10;;;;;;;;;;5070552;28;20020;-86
2023/11/09 03:03:05;;;;;;;4.45;1.15;;;;;;;;;;5060472;28;20079;-86
2023/11/09 03:05:30;;;;;;;2.42;1.10;;;;;;;;;;5067934;28;20407;-86
2023/11/09 03:07:56;;;;;;;2.33;1.27;;;;;;;;;;5062813;28;20032;-85
2023/11/09 03:10:21;;;;;;;4.53;1.40;;;;;;;;;;5050924;28;20108;-84
2023/11/09 03:12:47;;;;;;;1.83;1.10;;;;;;;;;;5051106;28;20029;-86
2023/11/09 03:15:13;;;;;;;2.45;1.13;;;;;;;;;;5051157;28;20033;-85
2023/11/09 03:17:42;;;;;;;5.13;1.30;;;;;;;;;;5052195;28;20025;-86
2023/11/09 03:20:09;;;;;;;2.95;1.48;;;;;;;;;;5061980;28;20456;-85
2023/11/09 03:22:35;;;;;;;1.90;1.20;;;;;;;;;;5054028;28;20108;-86
2023/11/09 03:25:03;;;;;;;2.78;1.08;;;;;;;;;;5051064;28;20082;-86
2023/11/09 03:27:29;;;;;;;1.35;0.90;;;;;;;;;;5065129;28;20017;-86
2023/11/09 03:29:56;;;;;;;3.05;1.48;;;;;;;;;;5050597;28;20031;-86
2023/11/09 03:32:23;;;;;;;3.58;1.40;;;;;;;;;;5051019;28;20025;-86
2023/11/09 03:34:48;;;;;;;5.40;1.83;;;;;;;;;;5056114;28;20380;-86
2023/11/09 03:37:13;;;;;;;3.13;1.60;;;;;;;;;;5059247;28;20040;-86
2023/11/09 03:39:38;;;;;;;1.88;1.10;;;;;;;;;;5050689;28;20131;-86
2023/11/09 03:42:05;;;;;;;2.63;1.30;;;;;;;;;;5060417;28;20035;-86
2023/11/09 03:44:35;;;;;;;1.95;1.25;;;;;;;;;;5056583;28;20372;-86
2023/11/09 03:47:00;;;;;;;1.85;1.20;;;;;;;;;;5062794;28;20087;-86
2023/11/09 03:49:25;;;;;;;2.88;1.15;;;;;;;;;;5060855;28;20016;-85
2023/11/09 03:51:51;;;;;;;3.83;1.40;;;;;;;;;;5056263;28;20314;-86
2023/11/09 03:54:16;;;;;;;1.55;1.08;;;;;;;;;;5066893;28;20151;-86
2023/11/09 03:56:41;;;;;;;3.63;1.20;;;;;;;;;;5062958;28;20024;-86
2023/11/09 03:59:06;;;;;;;4.10;1.58;;;;;;;;;;5059614;28;20025;-86
2023/11/09 04:01:32;;;;;;;6.00;1.50;;;;;;;;;;5068012;28;20032;-86
2023/11/09 04:03:57;;;;;;;4.00;1.23;;;;;;;;;;5058861;28;20028;-85
2023/11/09 04:06:23;;;;;;;1.63;1.15;;;;;;;;;;5063166;28;20033;-84
2023/11/09 04:08:48;;;;;;;4.20;1.58;;;;;;;;;;5056739;28;20871;-85
2023/11/09 04:11:14;;;;;;;2.67;1.20;;;;;;;;;;5074224;28;20581;-85
2023/11/09 04:13:39;;;;;;;2.97;1.40;;;;;;;;;;5057304;28;20021;-85
2023/11/09 04:16:05;;;;;;;1.48;1.20;;;;;;;;;;5068861;28;20032;-84
2023/11/09 04:18:31;;;;;;;3.00;1.17;;;;;;;;;;5053776;28;20086;-85
2023/11/09 04:20:56;;;;;;;1.05;0.80;;;;;;;;;;5054967;28;20480;-85
2023/11/09 04:23:22;;;;;;;1.60;0.90;;;;;;;;;;5053864;28;20032;-86
2023/11/09 04:25:47;;;;;;;0.95;0.60;;;;;;;;;;5067813;28;20505;-86
2023/11/09 04:28:12;;;;;;;2.17;0.80;;;;;;;;;;5039834;28;20055;-86
2023/11/09 04:30:37;;;;;;;1.00;0.60;;;;;;;;;;5067939;28;20024;-86
2023/11/09 04:33:09;;;;;;;3.40;0.60;;;;;;;;;;5053707;28;20041;-86
2023/11/09 04:35:34;;;;;;;1.58;0.50;;;;;;;;;;5053700;28;20032;-86
2023/11/09 04:38:02;;;;;;;2.58;0.60;;;;;;;;;;5067799;28;20025;-87
2023/11/09 04:40:27;;;;;;;1.50;0.70;;;;;;;;;;5053915;28;20468;-86
2023/11/09 04:42:59;;;;;;;0.75;0.40;;;;;;;;;;5070221;28;20039;-86
2023/11/09 04:45:25;;;;;;;0.73;0.50;;;;;;;;;;5069751;28;20491;-87
2023/11/09 04:47:58;;;;;;;2.75;1.17;;;;;;;;;;5058841;28;20357;-86
2023/11/09 04:50:28;;;;;;;3.65;0.82;;;;;;;;;;5053122;28;20441;-87
2023/11/09 04:53:19;;;;;;;3.05;0.68;;;;;;;;;;5067321;28;20017;-87
2023/11/09 04:55:53;;;;;;;2.08;1.13;;;;;;;;;;5053061;28;20028;-87
2023/11/09 05:06:48;;;;;;;8.90;1.20;;;;;;;;;;5060223;28;20522;-86
2023/11/09 05:09:14;;;;;;;5.88;2.00;;;;;;;;;;5054077;28;20021;-86
2023/11/09 05:11:39;;;;;;;2.67;1.35;;;;;;;;;;5053982;28;20096;-86
2023/11/09 05:14:05;;;;;;;6.82;1.70;;;;;;;;;;5052818;28;20013;-86
2023/11/09 05:16:30;;;;;;;4.15;1.52;;;;;;;;;;5065629;28;20093;-87
2023/11/09 05:18:56;;;;;;;4.05;1.48;;;;;;;;;;5053704;28;20067;-87
2023/11/09 05:21:21;;;;;;;8.15;1.50;;;;;;;;;;5053712;28;20021;-86
2023/11/09 05:23:46;;;;;;;2.80;1.23;;;;;;;;;;5054949;28;20086;-87
2023/11/09 05:26:12;;;;;;;6.38;1.60;;;;;;;;;;5067389;28;20017;-86
2023/11/09 05:28:37;;;;;;;1.92;1.08;;;;;;;;;;5052113;28;20017;-87
2023/11/09 05:31:03;;;;;;;4.80;1.42;;;;;;;;;;5053705;28;20028;-86
2023/11/09 05:33:28;;;;;;;4.03;1.42;;;;;;;;;;5053315;28;20020;-87
2023/11/09 05:35:54;;;;;;;2.60;1.25;;;;;;;;;;5052546;28;20444;-86
2023/11/09 05:38:21;;;;;;;3.88;1.30;;;;;;;;;;5053750;28;20074;-87
2023/11/09 05:40:47;;;;;;;2.70;1.70;;;;;;;;;;5054601;28;20017;-86
2023/11/09 05:43:13;;;;;;;4.20;1.33;;;;;;;;;;5064024;28;20027;-86
2023/11/09 05:45:38;;;;;;;5.90;1.40;;;;;;;;;;5053133;28;20036;-86
2023/11/09 05:48:06;;;;;;;5.53;1.85;;;;;;;;;;5052199;28;20075;-86
2023/11/09 05:50:31;;;;;;;5.00;1.75;;;;;;;;;;5052162;28;20048;-86
2023/11/09 05:52:57;;;;;;;10.32;1.70;;;;;;;;;;5052365;28;20013;-86
2023/11/09 05:55:22;;;;;;;6.05;2.05;;;;;;;;;;5051742;28;20017;-86
2023/11/09 05:57:47;;;;;;;4.15;2.42;;;;;;;;;;5058339;28;20052;-86
2023/11/09 06:00:14;;;;;;;5.40;2.17;;;;;;;;;;5063215;28;20070;-86
2023/11/09 06:02:39;;;;;;;5.43;2.63;;;;;;;;;;5058462;28;20025;-86
2023/11/09 06:05:05;;;;;;;6.95;3.17;;;;;;;;;;5070104;28;20150;-86
2023/11/09 06:07:30;;;;;;;6.95;2.42;;;;;;;;;;5060610;28;20107;-86
2023/11/09 06:09:56;;;;;;;4.90;2.60;;;;;;;;;;5070069;28;20021;-87
2023/11/09 06:12:21;;;;;;;3.97;2.15;;;;;;;;;;5051867;28;20021;-86
2023/11/09 06:14:47;;;;;;;6.85;2.28;;;;;;;;;;5051079;28;20036;-84
2023/11/09 06:17:12;;;;;;;6.72;2.67;;;;;;;;;;5051667;28;20021;-87
2023/11/09 06:19:37;;;;;;;6.93;2.30;;;;;;;;;;5051360;28;20028;-86
2023/11/09 06:22:06;;;;;;;5.93;2.20;;;;;;;;;;5053808;28;20044;-86
2023/11/09 06:24:32;;;;;;;7.55;2.25;;;;;;;;;;5051543;28;20025;-86
2023/11/09 06:26:57;;;;;;;10.07;2.42;;;;;;;;;;5054535;28;20028;-87
2023/11/09 06:29:22;;;;;;;6.75;2.38;;;;;;;;;;5051426;28;20013;-87
2023/11/09 06:31:49;;;;;;;11.10;2.90;;;;;;;;;;5063796;28;20017;-86
2023/11/09 06:34:17;;;;;;;6.00;2.45;;;;;;;;;;5057558;28;20070;-86
2023/11/09 06:36:44;;;;;;;6.63;1.92;;;;;;;;;;5060219;28;20525;-86
2023/11/09 06:39:16;;;;;;;7.40;2.67;;;;;;;;;;5051076;28;20453;-87
2023/11/09 06:41:41;;;;;;;6.72;2.42;;;;;;;;;;5051661;28;20060;-86
2023/11/09 06:44:06;;;;;;;6.20;2.50;;;;;;;;;;5052204;28;20071;-86
2023/11/09 06:46:31;;;;;;;8.60;3.05;;;;;;;;;;5051566;28;20095;-87
2023/11/09 06:48:57;;;;;;;8.15;2.65;;;;;;;;;;5066141;28;20038;-86
2023/11/09 06:51:23;;;;;;;11.90;3.10;;;;;;;;;;5065590;28;20495;-86
2023/11/09 06:53:49;;;;;;;4.80;2.40;;;;;;;;;;5051051;28;20024;-86
2023/11/09 06:56:14;;;;;;;9.60;3.17;;;;;;;;;;5051189;28;20021;-87
2023/11/09 06:58:40;;;;;;;8.52;3.08;;;;;;;;;;5060831;28;20047;-86
2023/11/09 07:01:05;;;;;;;7.63;2.80;;;;;;;;;;5057015;28;20082;-86
2023/11/09 07:03:30;;;;;;;7.88;2.63;;;;;;;;;;5067363;28;20318;-86
2023/11/09 07:05:55;;;;;;;10.38;2.97;;;;;;;;;;5061584;28;20025;-86
2023/11/09 07:08:28;;;;;;;6.93;2.72;;;;;;;;;;5052555;28;20520;-85
2023/11/09 07:10:53;;;;;;;12.93;2.78;;;;;;;;;;5039856;28;20032;-86
2023/11/09 07:13:19;;;;;;;5.95;2.47;;;;;;;;;;5066228;28;20013;-86
2023/11/09 07:15:47;;;;;;;8.00;2.78;;;;;;;;;;5054030;28;20056;-86
2023/11/09 07:18:13;;;;;;;11.20;2.60;;;;;;;;;;5063971;28;20025;-86
2023/11/09 07:20:38;;;;;;;10.27;3.15;;;;;;;;;;5052235;28;20017;-85
2023/11/09 07:23:06;;;;;;;12.60;2.53;;;;;;;;;;5061626;28;20028;-86
2023/11/09 07:25:36;;;;;;;11.00;2.33;;;;;;;;;;5053644;28;20051;-86
2023/11/09 07:28:03;;;;;;;10.18;3.05;;;;;;;;;;5053769;28;20021;-86
2023/11/09 07:30:31;;;;;;;7.45;2.88;;;;;;;;;;5057237;28;20013;-86
2023/11/09 07:32:57;;;;;;;8.75;3.08;;;;;;;;;;5066777;28;20037;-87
2023/11/09 07:35:24;;;;;;;8.57;3.58;;;;;;;;;;5054842;28;20032;-88
2023/11/09 07:37:50;;;;;;;12.50;3.63;;;;;;;;;;5041286;28;20028;-86
2023/11/09 07:40:15;;;;;;;11.15;4.20;;;;;;;;;;5054610;28;20049;-86
2023/11/09 07:42:43;;;;;;;9.30;3.33;;;;;;;;;;5068867;28;20024;-86
2023/11/09 07:45:10;;;;;;;16.35;4.10;;;;;;;;;;5055102;28;20107;-86
2023/11/09 07:47:35;;;;;;;12.73;3.42;;;;;;;;;;5056783;28;20017;-86
2023/11/09 07:50:00;;;;;;;13.27;3.83;;;;;;;;;;5065962;28;20013;-86
2023/11/09 07:52:25;;;;;;;13.77;3.00;;;;;;;;;;5054388;28;20021;-86
2023/11/09 07:54:51;;;;;;;11.23;3.53;;;;;;;;;;5053996;28;20131;-86
2023/11/09 07:57:16;;;;;;;8.15;3.42;;;;;;;;;;5066387;28;20048;-86
2023/11/09 07:59:45;;;;;;;12.07;3.10;;;;;;;;;;5069666;28;20028;-86
2023/11/09 08:02:12;;;;;;;8.98;2.40;;;;;;;;;;5056008;28;20032;-86
2023/11/09 08:04:38;;;;;;;10.80;3.35;;;;;;;;;;5053197;28;20035;-86
2023/11/09 08:07:04;;;;;;;11.52;2.92;;;;;;;;;;5072994;28;20046;-86
2023/11/09 08:09:30;;;;;;;9.73;2.65;;;;;;;;;;5073931;28;20061;-86
2023/11/09 08:11:55;;;;;;;7.35;2.72;;;;;;;;;;5060001;28;20051;-86
2023/11/09 08:14:21;;;;;;;8.00;3.03;;;;;;;;;;5064678;28;20096;-86
2023/11/09 08:16:46;;;;;;;12.20;3.00;;;;;;;;;;5055167;28;20116;-86
2023/11/09 08:19:12;;;;;;;12.07;3.97;;;;;;;;;;5053705;28;20013;-86
2023/11/09 08:21:38;;;;;;;8.80;3.08;;;;;;;;;;5067872;28;20016;-86
2023/11/09 08:24:04;;;;;;;6.00;2.65;;;;;;;;;;5054908;28;20017;-86
2023/11/09 08:26:29;;;;;;;6.00;2.78;;;;;;;;;;5054897;28;20036;-86
2023/11/09 08:28:54;;;;;;;8.38;2.50;;;;;;;;;;5055846;28;20074;-86
2023/11/09 08:31:21;;;;;;;8.70;2.75;;;;;;;;;;5064713;28;20029;-86
2023/11/09 08:33:47;;;;;;;9.55;2.78;;;;;;;;;;5052765;28;20108;-86
2023/11/09 08:36:12;;;;;;;13.50;2.47;;;;;;;;;;5053685;28;20107;-86
2023/11/09 08:38:39;;;;;;;12.07;2.88;;;;;;;;;;5052293;28;20025;-86
2023/11/09 08:41:05;;;;;;;10.27;2.97;;;;;;;;;;5067517;28;20017;-86
2023/11/09 08:43:34;;;;;;;9.32;3.05;;;;;;;;;;5053198;28;20021;-86
2023/11/09 08:46:02;;;;;;;8.70;2.63;;;;;;;;;;5053037;28;20121;-86
2023/11/09 08:48:28;;;;;;;12.45;3.20;;;;;;;;;;5062788;28;20061;-86
2023/11/09 08:50:56;;;;;;;15.13;2.90;;;;;;;;;;5067278;28;20028;-86
2023/11/09 08:53:22;;;;;;;14.48;2.80;;;;;;;;;;5065113;28;20009;-86
2023/11/09 08:55:47;;;;;;;13.82;5.00;;;;;;;;;;5053261;28;20135;-86
2023/11/09 08:58:12;;;;;;;9.23;2.53;;;;;;;;;;5052824;28;20025;-86
2023/11/09 09:00:38;;;;;;;14.55;3.65;;;;;;;;;;5052983;28;20032;-85
2023/11/09 09:03:03;;;;;;;14.93;2.97;;;;;;;;;;5052794;28;20107;-87
2023/11/09 09:05:28;;;;;;;9.18;3.67;;;;;;;;;;5066749;28;20017;-86
2023/11/09 09:07:59;;;;;;;11.27;2.50;;;;;;;;;;5065864;28;20080;-86
2023/11/09 09:10:27;;;;;;;9.82;2.80;;;;;;;;;;5054503;28;20017;-86
2023/11/09 09:12:52;;;;;;;11.18;3.20;;;;;;;;;;5052844;28;20017;-86
2023/11/09 09:15:19;;;;;;;7.57;3.13;;;;;;;;;;5053494;28;20021;-86
2023/11/09 09:17:48;;;;;;;11.88;3.35;;;;;;;;;;5052582;28;20021;-86
2023/11/09 09:20:15;;;;;;;7.82;2.40;;;;;;;;;;5052621;28;20028;-86
2023/11/09 09:22:44;;;;;;;16.70;3.33;;;;;;;;;;5054035;28;20419;-86
2023/11/09 09:25:14;;;;;;;11.88;3.60;;;;;;;;;;5052430;28;20108;-87
2023/11/09 09:27:43;;;;;;;10.38;3.38;;;;;;;;;;5049903;28;20025;-85
2023/11/09 09:30:10;;;;;;;8.98;2.55;;;;;;;;;;5053867;28;20082;-86
2023/11/09 09:32:37;;;;;;;11.00;3.50;;;;;;;;;;5052248;28;20127;-86
2023/11/09 09:35:03;;;;;;;13.20;3.10;;;;;;;;;;5053744;28;20132;-86
2023/11/09 09:37:32;;;;;;;12.63;2.78;;;;;;;;;;5053510;28;20009;-86
2023/11/09 09:39:57;;;;;;;11.77;2.90;;;;;;;;;;5052198;28;20082;-86
2023/11/09 09:42:24;;;;;;;11.77;2.88;;;;;;;;;;5053591;28;20021;-86
2023/11/09 09:44:52;;;;;;;10.73;2.47;;;;;;;;;;5065630;28;20337;-86
2023/11/09 09:47:18;;;;;;;10.15;2.50;;;;;;;;;;5052222;28;20376;-86
2023/11/09 09:49:46;;;;;;;9.13;3.13;;;;;;;;;;5039178;28;20358;-86
2023/11/09 09:52:11;;;;;;;5.82;2.28;;;;;;;;;;5052083;28;20573;-86
2023/11/09 09:54:39;;;;;;;10.05;3.13;;;;;;;;;;5066864;28;20037;-87
2023/11/09 09:57:04;;;;;;;9.98;2.22;;;;;;;;;;5051849;28;20017;-86
2023/11/09 09:59:32;;;;;;;13.07;2.55;;;;;;;;;;5051750;28;20024;-86
2023/11/09 10:02:00;;;;;;;18.63;3.55;;;;;;;;;;5051881;28;20024;-86
2023/11/09 10:04:29;;;;;;;13.45;3.13;;;;;;;;;;5054571;28;20384;-86
2023/11/09 10:06:57;;;;;;;13.02;3.03;;;;;;;;;;5055201;28;20016;-86
2023/11/09 10:09:25;;;;;;;7.90;2.70;;;;;;;;;;5061473;28;20124;-86
2023/11/09 10:11:52;;;;;;;16.67;3.50;;;;;;;;;;5053723;28;20102;-87
2023/11/09 10:14:17;;;;;;;13.82;3.40;;;;;;;;;;5053736;28;20437;-86
2023/11/09 10:16:46;;;;;;;9.95;2.78;;;;;;;;;;5051930;28;20017;-86
2023/11/09 10:19:13;;;;;;;9.43;2.35;;;;;;;;;;5052846;28;20071;-86
2023/11/09 10:21:41;;;;;;;11.32;3.60;;;;;;;;;;5063938;28;20448;-86
2023/11/09 10:24:07;;;;;;;8.85;2.70;;;;;;;;;;5051768;28;20070;-86
2023/11/09 10:26:44;;;;;;;11.27;2.92;;;;;;;;;;5052498;28;20491;-86
2023/11/09 10:29:14;;;;;;;10.55;1.85;;;;;;;;;;5057606;28;20417;-86
2023/11/09 10:31:40;;;;;;;7.43;2.20;;;;;;;;;;5060491;28;20104;-86
2023/11/09 10:34:10;;;;;;;9.25;2.15;;;;;;;;;;5050684;28;20044;-86
2023/11/09 10:36:36;;;;;;;14.85;2.40;;;;;;;;;;5051498;28;20029;-86
2023/11/09 10:39:01;;;;;;;12.07;2.40;;;;;;;;;;5050525;28;20070;-85
2023/11/09 10:41:27;;;;;;;6.43;2.28;;;;;;;;;;5050643;28;20021;-86
2023/11/09 10:43:55;;;;;;;7.47;2.03;;;;;;;;;;5051296;28;20024;-87
2023/11/09 10:46:20;;;;;;;14.75;2.30;;;;;;;;;;5037700;28;20170;-86
2023/11/09 10:48:49;;;;;;;14.13;2.25;;;;;;;;;;5052155;28;20528;-86
2023/11/09 10:51:19;;;;;;;13.18;2.33;;;;;;;;;;5052663;28;20048;-86
2023/11/09 10:53:47;;;;;;;13.48;2.10;;;;;;;;;;5051010;28;20024;-84
2023/11/09 10:56:16;;;;;;;13.50;2.03;;;;;;;;;;5052627;28;20027;-86
2023/11/09 10:58:44;;;;;;;12.63;1.52;;;;;;;;;;5050454;28;20032;-86
2023/11/09 11:01:13;;;;;;;9.38;2.30;;;;;;;;;;5050660;28;20358;-86
2023/11/09 11:03:44;;;;;;;10.80;2.00;;;;;;;;;;5058876;28;20020;-86
2023/11/09 11:06:11;;;;;;;11.40;2.10;;;;;;;;;;5064988;28;20021;-87
2023/11/09 11:08:46;;;;;;;10.85;1.85;;;;;;;;;;5055730;28;20009;-86
2023/11/09 11:11:14;;;;;;;11.90;2.22;;;;;;;;;;5053928;28;20028;-87
2023/11/09 11:13:43;;;;;;;11.38;1.88;;;;;;;;;;5054447;28;20063;-86
2023/11/09 11:16:26;;;;;;;18.73;2.10;;;;;;;;;;5055630;28;20522;-86
2023/11/09 11:19:05;;;;;;;12.70;1.65;;;;;;;;;;5055157;28;20723;-86
2023/11/09 11:21:45;;;;;;;11.80;2.55;;;;;;;;;;5055169;28;20020;-87
2023/11/09 11:24:16;;;;;;;12.88;1.70;;;;;;;;;;5053791;28;20035;-87
2023/11/09 11:27:02;;;;;;;8.40;1.77;;;;;;;;;;5058042;28;20102;-86
2023/11/09 11:29:29;;;;;;;12.00;1.67;;;;;;;;;;5041668;28;20254;-86
2023/11/09 11:31:55;;;;;;;8.25;1.70;;;;;;;;;;5054403;28;20021;-86
2023/11/09 11:34:44;;;;;;;16.35;1.95;;;;;;;;;;5059523;28;20490;-86
2023/11/09 11:37:11;;;;;;;10.90;1.90;;;;;;;;;;5059625;28;20052;-86
2023/11/09 11:39:37;;;;;;;12.07;2.15;;;;;;;;;;5054193;28;20132;-86
2023/11/09 11:42:16;;;;;;;21.92;2.35;;;;;;;;;;5067181;28;20048;-86
2023/11/09 11:44:46;;;;;;;16.05;2.30;;;;;;;;;;5040953;28;20036;-86
2023/11/09 11:47:14;;;;;;;16.23;2.38;;;;;;;;;;5054503;28;20017;-86
2023/11/09 11:49:40;;;;;;;11.82;1.88;;;;;;;;;;5055617;28;20009;-86
2023/11/09 11:52:09;;;;;;;12.07;2.28;;;;;;;;;;5066203;28;20391;-85
2023/11/09 11:54:35;;;;;;;14.60;2.35;;;;;;;;;;5056145;28;20025;-86
2023/11/09 11:57:01;;;;;;;15.35;2.55;;;;;;;;;;5053822;28;20400;-86
2023/11/09 11:59:28;;;;;;;16.33;2.33;;;;;;;;;;5068013;28;20024;-86
2023/11/09 12:01:55;;;;;;;19.77;3.20;;;;;;;;;;5064004;28;20020;-86
2023/11/09 12:04:20;;;;;;;11.88;1.75;;;;;;;;;;5069479;28;20317;-86
2023/11/09 12:06:47;;;;;;;13.20;2.03;;;;;;;;;;5058588;28;20021;-86
2023/11/09 12:09:15;;;;;;;14.32;2.45;;;;;;;;;;5053411;28;20465;-86
2023/11/09 12:11:45;;;;;;;9.73;2.20;;;;;;;;;;5068869;28;20035;-87
2023/11/09 12:14:11;;;;;;;13.98;1.88;;;;;;;;;;5065354;28;20066;-86
2023/11/09 12:16:39;;;;;;;11.30;2.30;;;;;;;;;;5053978;28;20036;-86
2023/11/09 12:19:06;;;;;;;11.40;2.35;;;;;;;;;;5067166;28;20037;-86
2023/11/09 12:21:34;;;;;;;13.10;2.65;;;;;;;;;;5065857;28;20444;-86
2023/11/09 12:24:00;;;;;;;10.20;1.85;;;;;;;;;;5055456;28;20036;-86
2023/11/09 12:26:28;;;;;;;5.95;1.63;;;;;;;;;;5053907;28;20021;-86
2023/11/09 12:28:53;;;;;;;14.07;2.45;;;;;;;;;;5055654;28;20017;-85
2023/11/09 12:31:20;;;;;;;7.25;1.90;;;;;;;;;;5065336;28;20188;-84
2023/11/09 12:34:05;;;;;;;14.32;2.03;;;;;;;;;;5052911;28;20791;-87
2023/11/09 12:36:33;;;;;;;14.27;1.90;;;;;;;;;;5055957;28;20460;-86
2023/11/09 12:38:59;;;;;;;8.55;1.38;;;;;;;;;;5053256;28;20033;-86
2023/11/09 12:41:25;;;;;;;8.52;1.48;;;;;;;;;;5053703;28;20114;-86
2023/11/09 12:43:50;;;;;;;10.32;1.67;;;;;;;;;;5052931;28;20120;-86
2023/11/09 12:46:19;;;;;;;10.55;1.75;;;;;;;;;;5053283;28;20017;-86
2023/11/09 12:48:47;;;;;;;15.30;2.20;;;;;;;;;;5066409;28;20020;-86
2023/11/09 12:51:21;;;;;;;12.25;2.28;;;;;;;;;;5073136;28;20118;-86
2023/11/09 12:53:47;;;;;;;9.15;1.58;;;;;;;;;;5061885;28;20028;-86
2023/11/09 12:56:16;;;;;;;8.18;1.33;;;;;;;;;;5053087;28;20021;-85
2023/11/09 12:58:42;;;;;;;11.18;2.25;;;;;;;;;;5055511;28;20021;-86
2023/11/09 13:01:14;;;;;;;10.15;1.42;;;;;;;;;;5053815;28;20110;-86
2023/11/09 13:03:39;;;;;;;17.45;2.28;;;;;;;;;;5057757;28;20081;-87
2023/11/09 13:06:08;;;;;;;13.70;2.00;;;;;;;;;;5073369;28;20107;-86
2023/11/09 13:08:34;;;;;;;13.20;1.98;;;;;;;;;;5055401;28;20021;-86
2023/11/09 13:11:02;;;;;;;17.88;2.20;;;;;;;;;;5052950;28;20025;-86
2023/11/09 13:13:33;;;;;;;7.97;1.42;;;;;;;;;;5060947;28;20029;-86
2023/11/09 13:16:03;;;;;;;6.70;1.38;;;;;;;;;;5052758;28;20033;-86
2023/11/09 13:18:28;;;;;;;8.77;1.25;;;;;;;;;;5053380;28;20021;-87
2023/11/09 13:20:54;;;;;;;8.63;1.58;;;;;;;;;;5052490;28;20094;-86
2023/11/09 13:23:31;;;;;;;8.10;1.42;;;;;;;;;;5052380;28;20401;-86
2023/11/09 13:25:58;;;;;;;12.18;1.90;;;;;;;;;;5065956;28;20451;-86
2023/11/09 13:28:28;;;;;;;9.98;1.52;;;;;;;;;;5066549;28;20430;-86
2023/11/09 13:30:53;;;;;;;14.23;1.80;;;;;;;;;;5053703;28;20035;-86
2023/11/09 13:33:39;;;;;;;11.77;2.63;;;;;;;;;;5052322;28;20021;-86
2023/11/09 13:36:09;;;;;;;9.68;1.90;;;;;;;;;;5063362;28;20029;-86
2023/11/09 13:39:27;;;;;;;16.52;2.22;;;;;;;;;;5052376;28;20017;-86
2023/11/09 13:41:41;;;;;;;12.60;2.10;;;;;;;;;;5043088;28;20027;-86
2023/11/09 13:44:07;;;;;;;11.77;1.33;;;;;;;;;;5053125;28;20020;-86
2023/11/09 13:46:41;;;;;;;11.18;1.55;;;;;;;;;;5052761;28;20024;-86
2023/11/09 13:49:24;;;;;;;3.53;0.70;;;;;;;;;;5051654;28;20043;-86
2023/11/09 13:54:45;;;;;;;8.63;1.23;;;;;;;;;;5059206;28;20576;-87
2023/11/09 13:59:54;;;;;;;13.52;1.92;;;;;;;;;;5058891;28;20044;-86
2023/11/09 14:02:20;;;;;;;10.32;1.90;;;;;;;;;;5071803;28;20009;-87
2023/11/09 14:05:08;;;;;;;13.00;1.77;;;;;;;;;;5072867;28;20025;-86
2023/11/09 14:07:32;;;;;;;7.93;1.20;;;;;;;;;;5053119;28;20120;-87
2023/11/09 14:10:12;;;;;;;5.20;0.88;;;;;;;;;;5051709;28;20065;-86
2023/11/09 14:12:37;;;;;;;9.50;0.90;;;;;;;;;;5052040;28;20059;-86
2023/11/09 14:15:22;;;;;;;11.05;1.95;;;;;;;;;;5051515;28;20148;-86
2023/11/09 14:17:51;;;;;;;16.02;2.10;;;;;;;;;;5052134;28;20048;-86
2023/11/09 14:20:26;;;;;;;6.78;1.45;;;;;;;;;;5053214;28;20086;-87
2023/11/09 14:22:51;;;;;;;9.45;1.73;;;;;;;;;;5073068;28;20021;-86
2023/11/09 14:25:21;;;;;;;5.60;0.95;;;;;;;;;;5056362;28;20074;-86
2023/11/09 14:27:47;;;;;;;10.93;1.60;;;;;;;;;;5051624;28;20024;-86
2023/11/09 14:30:18;;;;;;;15.20;2.08;;;;;;;;;;5066225;28;20013;-87
2023/11/09 14:32:47;;;;;;;10.57;1.30;;;;;;;;;;5051595;28;20023;-87
2023/11/09 14:35:14;;;;;;;6.88;1.17;;;;;;;;;;5065356;28;20020;-87
2023/11/09 14:37:39;;;;;;;10.27;2.38;;;;;;;;;;5067229;28;20036;-86
2023/11/09 14:40:15;;;;;;;9.68;1.52;;;;;;;;;;5050815;28;20088;-86
2023/11/09 14:42:40;;;;;;;6.70;1.40;;;;;;;;;;5050724;28;20036;-86
2023/11/09 14:45:06;;;;;;;4.03;1.20;;;;;;;;;;5051954;28;20021;-86
2023/11/09 14:47:41;;;;;;;11.35;1.70;;;;;;;;;;5065227;28;20052;-87
2023/11/09 14:50:10;;;;;;;11.85;1.48;;;;;;;;;;5050826;28;20025;-86
2023/11/09 14:53:01;;;;;;;8.93;1.70;;;;;;;;;;5050912;28;20021;-86